createdAt,value
2019-01-28T00:00:20.382Z,17.45
2019-01-28T00:01:20.987Z,17.45
2019-01-28T00:02:21.187Z,17.45
2019-01-28T00:03:20.271Z,17.44
2019-01-28T00:04:20.972Z,17.45
2019-01-28T00:05:20.150Z,17.42
2019-01-28T00:06:20.149Z,17.43
2019-01-28T00:07:20.316Z,17.42
2019-01-28T00:08:20.490Z,17.42
2019-01-28T00:09:20.480Z,17.41
2019-01-28T00:10:20.253Z,17.39
2019-01-28T00:11:20.604Z,17.4
2019-01-28T00:12:20.300Z,17.38
2019-01-28T00:13:20.271Z,17.38
2019-01-28T00:14:20.390Z,17.38
2019-01-28T00:15:20.434Z,17.37
2019-01-28T00:16:20.241Z,17.36
2019-01-28T00:17:20.391Z,17.37
2019-01-28T00:18:21.221Z,17.36
2019-01-28T00:19:20.348Z,17.36
2019-01-28T00:20:20.753Z,17.36
2019-01-28T00:21:20.473Z,17.36
2019-01-28T00:22:20.389Z,17.34
2019-01-28T00:23:20.353Z,17.34
2019-01-28T00:24:20.472Z,17.34
2019-01-28T00:25:20.341Z,17.33
2019-01-28T00:26:21.128Z,17.32
2019-01-28T00:27:20.246Z,17.31
2019-01-28T00:28:22.100Z,17.32
2019-01-28T00:29:20.485Z,17.32
2019-01-28T00:30:20.717Z,17.32
2019-01-28T00:31:20.275Z,17.3
2019-01-28T00:32:20.051Z,17.29
2019-01-28T00:33:20.319Z,17.29
2019-01-28T00:34:20.067Z,17.29
2019-01-28T00:35:20.594Z,17.29
2019-01-28T00:36:20.284Z,17.29
2019-01-28T00:37:23.285Z,17.28
2019-01-28T00:38:20.117Z,17.27
2019-01-28T00:39:20.543Z,17.27
2019-01-28T00:40:20.512Z,17.26
2019-01-28T00:41:20.157Z,17.26
2019-01-28T00:42:20.282Z,17.26
2019-01-28T00:43:20.321Z,17.25
2019-01-28T00:44:20.160Z,17.24
2019-01-28T00:45:20.236Z,17.23
2019-01-28T00:46:20.249Z,17.23
2019-01-28T00:47:20.249Z,17.23
2019-01-28T00:48:20.267Z,17.23
2019-01-28T00:49:20.992Z,17.23
2019-01-28T00:50:20.393Z,17.23
2019-01-28T00:51:20.514Z,17.23
2019-01-28T00:52:20.249Z,17.22
2019-01-28T00:53:20.603Z,17.21
2019-01-28T00:54:20.113Z,17.21
2019-01-28T00:55:20.346Z,17.21
2019-01-28T00:56:20.698Z,17.21
2019-01-28T00:57:20.203Z,17.2
2019-01-28T00:58:20.739Z,17.19
2019-01-28T00:59:20.317Z,17.19
2019-01-28T01:00:20.468Z,17.18
2019-01-28T01:01:21.391Z,17.17
2019-01-28T01:02:20.564Z,17.17
2019-01-28T01:03:20.364Z,17.16
2019-01-28T01:04:20.056Z,17.17
2019-01-28T01:05:20.377Z,17.16
2019-01-28T01:06:20.167Z,17.17
2019-01-28T01:07:20.399Z,17.16
2019-01-28T01:08:20.356Z,17.15
2019-01-28T01:09:20.051Z,17.14
2019-01-28T01:10:20.342Z,17.13
2019-01-28T01:11:20.740Z,17.14
2019-01-28T01:12:20.366Z,17.13
2019-01-28T01:13:20.244Z,17.12
2019-01-28T01:14:20.226Z,17.11
2019-01-28T01:15:20.179Z,17.1
2019-01-28T01:16:20.144Z,17.11
2019-01-28T01:17:20.255Z,17.1
2019-01-28T01:18:23.765Z,17.1
2019-01-28T01:19:20.264Z,17.09
2019-01-28T01:20:20.366Z,17.1
2019-01-28T01:21:20.204Z,17.1
2019-01-28T01:22:20.275Z,17.09
2019-01-28T01:23:21.026Z,17.08
2019-01-28T01:24:20.522Z,17.08
2019-01-28T01:25:20.426Z,17.08
2019-01-28T01:26:20.324Z,17.07
2019-01-28T01:27:20.381Z,17.08
2019-01-28T01:28:20.451Z,17.07
2019-01-28T01:29:21.303Z,17.07
2019-01-28T01:30:20.429Z,17.06
2019-01-28T01:31:20.224Z,17.06
2019-01-28T01:32:20.671Z,17.05
2019-01-28T01:33:20.269Z,17.05
2019-01-28T01:34:20.497Z,17.05
2019-01-28T01:35:20.191Z,17.04
2019-01-28T01:36:20.147Z,17.04
2019-01-28T01:37:20.124Z,17.03
2019-01-28T01:38:20.146Z,17.03
2019-01-28T01:39:20.129Z,17.03
2019-01-28T01:40:21.818Z,17.03
2019-01-28T01:41:20.450Z,17.03
2019-01-28T01:42:20.984Z,17.02
2019-01-28T01:43:20.555Z,17.01
2019-01-28T01:44:20.184Z,17.01
2019-01-28T01:45:20.480Z,17.01
2019-01-28T01:46:20.592Z,17.01
2019-01-28T01:47:20.394Z,17.01
2019-01-28T01:48:20.273Z,17
2019-01-28T01:49:20.853Z,17.01
2019-01-28T01:50:20.387Z,16.99
2019-01-28T01:51:20.344Z,16.98
2019-01-28T01:52:20.192Z,16.98
2019-01-28T01:53:20.764Z,16.98
2019-01-28T01:54:20.213Z,16.98
2019-01-28T01:55:20.538Z,16.98
2019-01-28T01:56:20.686Z,16.97
2019-01-28T01:57:20.258Z,16.97
2019-01-28T01:58:20.291Z,16.97
2019-01-28T01:59:21.296Z,16.97
2019-01-28T02:00:21.352Z,16.97
2019-01-28T02:01:20.436Z,16.95
2019-01-28T02:02:20.476Z,16.94
2019-01-28T02:03:20.445Z,16.95
2019-01-28T02:04:20.268Z,16.95
2019-01-28T02:05:20.507Z,16.94
2019-01-28T02:06:20.062Z,16.94
2019-01-28T02:07:20.378Z,16.94
2019-01-28T02:08:20.306Z,16.93
2019-01-28T02:09:20.027Z,16.93
2019-01-28T02:10:20.186Z,16.94
2019-01-28T02:11:20.441Z,16.92
2019-01-28T02:12:20.361Z,16.92
2019-01-28T02:13:20.175Z,16.92
2019-01-28T02:14:20.150Z,16.91
2019-01-28T02:15:20.050Z,16.91
2019-01-28T02:16:20.165Z,16.91
2019-01-28T02:17:20.234Z,16.92
2019-01-28T02:18:20.486Z,16.91
2019-01-28T02:19:20.445Z,16.9
2019-01-28T02:20:20.427Z,16.91
2019-01-28T02:21:20.235Z,16.9
2019-01-28T02:22:20.112Z,16.9
2019-01-28T02:23:20.206Z,16.89
2019-01-28T02:24:20.565Z,16.89
2019-01-28T02:25:20.255Z,16.88
2019-01-28T02:26:20.059Z,16.88
2019-01-28T02:27:20.602Z,16.88
2019-01-28T02:28:20.233Z,16.88
2019-01-28T20:19:46.670Z,19.18
2019-01-28T20:20:46.694Z,19.15
2019-01-28T20:21:46.876Z,19.13
2019-01-28T20:22:46.878Z,19.12
2019-01-28T20:23:46.874Z,19.1
2019-01-28T20:24:46.659Z,19.09
2019-01-28T20:25:46.921Z,19.09
2019-01-28T20:26:47.647Z,19.07
2019-01-28T20:27:47.057Z,19.06
2019-01-28T20:28:47.338Z,19.05
2019-01-28T20:29:46.812Z,19.04
2019-01-28T20:30:47.164Z,19.03
2019-01-28T20:31:46.408Z,19.03
2019-01-28T20:32:46.363Z,19.02
2019-01-28T20:33:46.602Z,19.01
2019-01-28T20:34:46.581Z,19
2019-01-28T20:35:46.767Z,18.99
2019-01-28T20:36:46.669Z,18.98
2019-01-28T20:37:46.796Z,18.97
2019-01-28T20:38:46.697Z,18.97
2019-01-28T20:39:46.724Z,18.96
2019-01-28T20:40:46.420Z,18.95
2019-01-28T20:41:46.619Z,18.94
2019-01-28T20:42:46.788Z,18.93
2019-01-28T20:43:46.429Z,18.91
2019-01-28T20:44:46.468Z,18.91
2019-01-28T20:45:46.449Z,18.9
2019-01-28T20:46:49.049Z,18.9
2019-01-28T20:47:46.746Z,18.9
2019-01-28T20:48:46.942Z,18.9
2019-01-28T20:49:46.655Z,18.88
2019-01-28T20:50:46.553Z,18.88
2019-01-28T20:51:46.597Z,18.87
2019-01-28T20:52:46.836Z,18.86
2019-01-28T20:53:48.531Z,18.84
2019-01-28T20:54:46.836Z,18.84
2019-01-28T20:55:46.711Z,18.84
2019-01-28T20:56:46.911Z,18.84
2019-01-28T20:57:46.810Z,18.83
2019-01-28T20:58:47.045Z,18.82
2019-01-28T20:59:46.852Z,18.81
2019-01-28T21:00:46.957Z,18.81
2019-01-28T21:01:46.928Z,18.8
2019-01-28T21:02:48.605Z,18.79
2019-01-28T21:03:48.626Z,18.78
2019-01-28T21:04:47.181Z,18.78
2019-01-28T21:05:47.626Z,18.77
2019-01-28T21:06:47.041Z,18.78
2019-01-28T21:07:47.874Z,18.78
2019-01-28T21:08:47.341Z,18.76
2019-01-28T21:09:47.228Z,18.75
2019-01-28T21:10:47.405Z,18.74
2019-01-28T21:11:46.916Z,18.73
2019-01-28T21:12:47.498Z,18.73
2019-01-28T21:13:46.973Z,18.73
2019-01-28T21:14:46.935Z,18.72
2019-01-28T21:15:46.918Z,18.73
2019-01-28T21:16:47.741Z,18.72
2019-01-28T21:17:47.087Z,18.71
2019-01-28T21:18:46.928Z,18.7
2019-01-28T21:19:47.247Z,18.69
2019-01-28T21:20:46.612Z,18.68
2019-01-28T21:21:46.770Z,18.69
2019-01-28T21:22:46.701Z,18.68
2019-01-28T21:23:46.544Z,18.68
2019-01-28T21:24:46.762Z,18.67
2019-01-28T21:25:46.751Z,18.67
2019-01-28T21:26:47.822Z,18.66
2019-01-28T21:27:46.620Z,18.66
2019-01-28T21:28:46.786Z,18.66
2019-01-28T21:29:46.880Z,18.66
2019-01-28T21:30:46.930Z,18.64
2019-01-28T21:31:46.757Z,18.64
2019-01-28T21:32:47.018Z,18.63
2019-01-28T21:33:46.980Z,18.62
2019-01-28T21:34:46.871Z,18.61
2019-01-28T21:35:46.940Z,18.6
2019-01-28T21:36:46.981Z,18.59
2019-01-28T21:37:46.856Z,18.58
2019-01-28T21:38:46.690Z,18.56
2019-01-28T21:39:46.881Z,18.55
2019-01-28T21:40:46.812Z,18.54
2019-01-28T21:41:49.156Z,18.54
2019-01-28T21:42:46.759Z,18.52
2019-01-28T21:43:47.022Z,18.51
2019-01-28T21:44:48.512Z,18.5
2019-01-28T21:45:46.918Z,18.49
2019-01-28T21:46:46.753Z,18.48
2019-01-28T21:47:46.688Z,18.47
2019-01-28T21:48:46.696Z,18.46
2019-01-28T21:49:48.277Z,18.45
2019-01-28T21:50:46.719Z,18.43
2019-01-28T21:51:51.085Z,18.42
2019-01-28T21:52:46.808Z,18.42
2019-01-28T21:53:46.799Z,18.41
2019-01-28T21:54:46.764Z,18.38
2019-01-28T21:55:46.817Z,18.39
2019-01-28T21:56:48.079Z,18.38
2019-01-28T21:57:48.259Z,18.36
2019-01-28T21:58:46.919Z,18.35
2019-01-28T21:59:46.685Z,18.35
2019-01-28T22:00:47.110Z,18.34
2019-01-28T22:01:46.617Z,18.33
2019-01-28T22:02:47.322Z,18.32
2019-01-28T22:03:47.989Z,18.31
2019-01-28T22:04:47.087Z,18.29
2019-01-28T22:05:47.090Z,18.29
2019-01-28T22:06:47.032Z,18.28
2019-01-28T22:07:46.601Z,18.26
2019-01-28T22:08:46.843Z,18.26
2019-01-28T22:09:46.532Z,18.25
2019-01-28T22:10:47.003Z,18.25
2019-01-28T22:11:47.004Z,18.23
2019-01-28T22:12:46.798Z,18.23
2019-01-28T22:13:46.786Z,18.21
2019-01-28T22:14:46.931Z,18.2
2019-01-28T22:15:47.000Z,18.19
2019-01-28T22:16:47.287Z,18.19
2019-01-28T22:17:47.488Z,18.18
2019-01-28T22:18:46.847Z,18.17
2019-01-28T22:19:46.647Z,18.17
2019-01-28T22:20:46.472Z,18.14
2019-01-28T22:21:47.191Z,18.14
2019-01-28T22:22:46.692Z,18.13
2019-01-28T22:23:46.521Z,18.11
2019-01-28T22:24:46.609Z,18.1
2019-01-28T22:25:46.660Z,18.1
2019-01-28T22:26:46.510Z,18.09
2019-01-28T22:27:46.735Z,18.08
2019-01-28T22:28:46.799Z,18.07
2019-01-28T22:29:47.135Z,18.06
2019-01-28T22:30:46.675Z,18.05
2019-01-28T22:31:46.672Z,18.04
2019-01-28T22:32:46.476Z,18.04
2019-01-28T22:33:47.095Z,18.03
2019-01-28T22:34:48.440Z,18.02
2019-01-28T22:35:46.685Z,18.01
2019-01-28T22:36:47.201Z,18
2019-01-28T22:37:46.706Z,17.99
2019-01-28T22:38:50.245Z,17.98
2019-01-28T22:39:46.789Z,17.98
2019-01-28T22:40:46.769Z,17.97
2019-01-28T22:41:46.678Z,17.96
2019-01-28T22:42:46.699Z,17.96
2019-01-28T22:43:46.941Z,17.94
2019-01-28T22:44:46.745Z,17.93
2019-01-28T22:45:47.109Z,17.92
2019-01-28T22:46:47.412Z,17.92
2019-01-28T22:47:46.800Z,17.9
2019-01-28T22:48:46.756Z,17.9
2019-01-28T22:49:46.900Z,17.9
2019-01-28T22:50:46.906Z,17.89
2019-01-28T22:51:47.194Z,17.88
2019-01-28T22:52:46.968Z,17.86
2019-01-28T22:53:47.336Z,17.86
2019-01-28T22:54:47.236Z,17.85
2019-01-28T22:55:46.885Z,17.86
2019-01-28T22:56:46.465Z,17.85
2019-01-28T22:57:46.875Z,17.82
2019-01-28T22:58:46.885Z,17.82
2019-01-28T22:59:46.646Z,17.82
2019-01-28T23:00:46.741Z,17.81
2019-01-28T23:01:46.879Z,17.8
2019-01-28T23:02:46.762Z,17.8
2019-01-28T23:03:46.608Z,17.79
2019-01-28T23:04:46.645Z,17.78
2019-01-28T23:05:46.990Z,17.78
2019-01-28T23:06:46.928Z,17.77
2019-01-28T23:07:46.986Z,17.76
2019-01-28T23:08:46.835Z,17.75
2019-01-28T23:09:46.834Z,17.75
2019-01-28T23:10:46.694Z,17.74
2019-01-28T23:11:46.579Z,17.73
2019-01-28T23:12:47.059Z,17.73
2019-01-28T23:13:46.730Z,17.73
2019-01-28T23:14:46.927Z,17.72
2019-01-28T23:15:47.066Z,17.71
2019-01-28T23:16:46.886Z,17.7
2019-01-28T23:17:46.909Z,17.7
2019-01-28T23:18:46.620Z,17.69
2019-01-28T23:19:46.543Z,17.69
2019-01-28T23:20:46.649Z,17.68
2019-01-28T23:21:46.967Z,17.67
2019-01-28T23:22:46.553Z,17.67
2019-01-28T23:23:47.050Z,17.65
2019-01-28T23:24:46.824Z,17.65
2019-01-28T23:25:46.867Z,17.64
2019-01-28T23:26:46.786Z,17.63
2019-01-28T23:27:47.187Z,17.63
2019-01-28T23:28:46.638Z,17.62
2019-01-28T23:29:46.623Z,17.62
2019-01-28T23:30:46.823Z,17.61
2019-01-28T23:31:46.704Z,17.61
2019-01-28T23:32:46.727Z,17.61
2019-01-28T23:33:46.654Z,17.61
2019-01-28T23:34:46.532Z,17.59
2019-01-28T23:35:46.651Z,17.58
2019-01-28T23:36:47.430Z,17.57
2019-01-28T23:37:46.937Z,17.57
2019-01-28T23:38:47.153Z,17.56
2019-01-28T23:39:47.579Z,17.56
2019-01-28T23:40:46.680Z,17.54
2019-01-28T23:41:46.385Z,17.54
2019-01-28T23:42:46.788Z,17.54
2019-01-28T23:43:46.557Z,17.53
2019-01-28T23:44:46.471Z,17.52
2019-01-28T23:45:46.897Z,17.51
2019-01-28T23:46:46.801Z,17.51
2019-01-28T23:47:46.656Z,17.49
2019-01-28T23:48:46.789Z,17.48
2019-01-28T23:49:46.770Z,17.48
2019-01-28T23:50:46.760Z,17.47
2019-01-28T23:51:46.837Z,17.47
2019-01-28T23:52:47.799Z,17.46
2019-01-28T23:53:47.508Z,17.45
2019-01-28T23:54:46.670Z,17.45
2019-01-28T23:55:47.478Z,17.45
2019-01-28T23:56:46.869Z,17.44
2019-01-28T23:57:46.692Z,17.43
2019-01-28T23:58:47.100Z,17.42
2019-01-28T23:59:46.907Z,17.43
